Time;durP1;ratioP1;P1;durP2;ratioP2;P2;SDS_P1;SDS_P2;PMS_P1;PMS_P2;Temp;Humidity;BMP_temperature;BMP_pressure;BME280_temperature;BME280_humidity;BME280_pressure;Samples;Min_cycle;Max_cycle;Signal;HPM_P1;HPM_P2
2021/06/05 00:01:16;;;;;;;76.78;42.35;;;17.90;99.90;;;;;;5092192;28;20066;-78
2021/06/05 00:03:44;;;;;;;85.60;45.58;;;17.90;99.90;;;;;;5092228;28;20035;-77
2021/06/05 00:06:14;;;;;;;86.03;45.20;;;17.90;99.90;;;;;;5092252;28;20024;-77
2021/06/05 00:08:45;;;;;;;74.35;44.25;;;17.90;99.90;;;;;;5092259;28;20035;-77
2021/06/05 00:11:12;;;;;;;78.85;44.47;;;17.90;99.90;;;;;;5091991;28;20325;-77
2021/06/05 00:13:52;;;;;;;91.65;47.28;;;17.90;99.90;;;;;;5092127;28;20034;-77
2021/06/05 00:16:21;;;;;;;88.70;47.00;;;17.90;99.90;;;;;;5092124;28;20039;-77
2021/06/05 00:18:50;;;;;;;98.82;47.33;;;17.90;99.90;;;;;;5092058;28;20023;-77
2021/06/05 00:21:17;;;;;;;92.07;46.90;;;17.90;99.90;;;;;;5091781;28;20020;-78
2021/06/05 00:23:43;;;;;;;93.22;47.55;;;17.90;99.90;;;;;;5091887;28;20440;-78
2021/06/05 00:26:10;;;;;;;96.40;46.67;;;17.80;99.90;;;;;;5090617;28;20118;-78
2021/06/05 00:28:36;;;;;;;86.55;46.08;;;17.70;99.90;;;;;;5091767;28;20104;-78
2021/06/05 00:31:02;;;;;;;110.75;49.25;;;17.70;99.90;;;;;;5091622;28;20341;-77
2021/06/05 00:33:29;;;;;;;111.70;51.22;;;17.70;99.90;;;;;;5091783;28;20028;-77
2021/06/05 00:35:58;;;;;;;115.70;51.70;;;17.70;99.90;;;;;;5089399;28;20024;-78
2021/06/05 00:38:23;;;;;;;119.45;53.25;;;17.70;99.90;;;;;;5071572;28;20021;-76
2021/06/05 00:40:58;;;;;;;127.85;52.85;;;17.70;99.90;;;;;;5071249;28;20051;-77
2021/06/05 00:43:27;;;;;;;115.97;54.60;;;17.60;99.90;;;;;;5071420;28;20029;-78
2021/06/05 00:45:53;;;;;;;122.78;55.88;;;17.60;99.90;;;;;;5071429;28;20032;-78
2021/06/05 00:48:20;;;;;;;112.05;52.92;;;17.60;99.90;;;;;;5070325;28;20024;-79
2021/06/05 00:50:48;;;;;;;125.80;54.45;;;17.50;99.90;;;;;;5071377;28;20016;-79
2021/06/05 00:53:16;;;;;;;125.63;55.95;;;17.50;99.90;;;;;;5071581;28;20021;-78
2021/06/05 00:55:45;;;;;;;125.97;55.45;;;17.40;99.90;;;;;;5071594;28;20468;-78
2021/06/05 00:58:14;;;;;;;119.10;54.75;;;17.30;99.90;;;;;;5071547;28;20032;-78
2021/06/05 01:00:51;;;;;;;131.88;56.50;;;17.30;99.90;;;;;;5073514;28;20028;-77
2021/06/05 01:03:20;;;;;;;132.77;54.95;;;17.30;99.90;;;;;;5090401;28;20031;-78
2021/06/05 01:05:50;;;;;;;126.65;54.80;;;17.20;99.90;;;;;;5090386;28;20078;-79
2021/06/05 01:09:02;;;;;;;126.55;56.63;;;17.20;99.90;;;;;;5076095;28;20024;-78
2021/06/05 01:11:47;;;;;;;129.43;55.97;;;17.30;99.90;;;;;;5082820;28;20063;-79
2021/06/05 01:14:41;;;;;;;135.48;56.35;;;17.30;99.90;;;;;;5091668;28;20084;-79
2021/06/05 01:17:11;;;;;;;137.45;55.55;;;17.30;99.90;;;;;;5091559;28;20401;-78
2021/06/05 01:19:49;;;;;;;156.27;59.50;;;17.20;99.90;;;;;;5091535;28;20115;-78
2021/06/05 01:22:28;;;;;;;113.25;52.92;;;17.20;99.90;;;;;;5091635;28;20055;-78
2021/06/05 01:25:05;;;;;;;123.93;55.00;;;17.20;99.90;;;;;;5091407;28;20493;-76
2021/06/05 01:27:39;;;;;;;123.90;54.67;;;17.20;99.90;;;;;;5090294;28;20410;-79
2021/06/05 01:30:24;;;;;;;124.60;52.83;;;17.10;99.90;;;;;;5091108;28;20043;-78
2021/06/05 01:32:58;;;;;;;127.30;54.08;;;17.00;99.90;;;;;;5091244;28;20356;-78
2021/06/05 01:35:29;;;;;;;121.80;52.42;;;17.00;99.90;;;;;;5091239;28;20032;-78
2021/06/05 01:37:55;;;;;;;130.40;54.72;;;17.00;99.90;;;;;;5091072;28;20024;-78
2021/06/05 01:40:27;;;;;;;128.48;55.13;;;17.00;99.90;;;;;;5091445;28;20036;-77
2021/06/05 01:42:57;;;;;;;137.65;57.35;;;17.00;99.90;;;;;;5091381;28;20028;-78
2021/06/05 01:45:28;;;;;;;118.32;52.38;;;17.00;99.90;;;;;;5091085;28;20032;-78
2021/06/05 01:47:57;;;;;;;122.32;52.45;;;16.90;99.90;;;;;;5090966;28;20543;-79
2021/06/05 01:50:28;;;;;;;116.68;53.33;;;17.00;99.90;;;;;;5090876;28;20038;-78
2021/06/05 01:52:57;;;;;;;139.35;56.10;;;16.90;99.90;;;;;;5090335;28;20016;-79
2021/06/05 01:55:28;;;;;;;126.15;54.90;;;16.90;99.90;;;;;;5094743;28;20097;-78
2021/06/05 01:57:57;;;;;;;141.37;56.87;;;16.90;99.90;;;;;;5094564;28;20035;-79
2021/06/05 02:00:30;;;;;;;133.32;55.92;;;17.00;99.90;;;;;;5093785;28;20411;-78
2021/06/05 02:02:55;;;;;;;150.05;57.22;;;16.90;99.90;;;;;;5093556;28;20130;-78
2021/06/05 02:05:24;;;;;;;138.60;56.55;;;16.80;99.90;;;;;;5094434;28;20440;-78
2021/06/05 02:07:56;;;;;;;141.20;52.70;;;16.80;99.90;;;;;;5094261;28;20024;-79
2021/06/05 02:10:27;;;;;;;134.13;53.22;;;16.70;99.90;;;;;;5093177;28;20116;-78
2021/06/05 02:12:55;;;;;;;128.13;52.35;;;16.70;99.90;;;;;;5094196;28;20463;-78
2021/06/05 02:15:26;;;;;;;137.10;54.72;;;16.70;99.90;;;;;;5093101;28;20028;-78
2021/06/05 02:17:57;;;;;;;131.05;53.63;;;16.70;99.90;;;;;;5094194;28;20024;-78
2021/06/05 02:20:26;;;;;;;132.18;53.50;;;16.70;99.90;;;;;;5094239;28;20043;-78
2021/06/05 02:22:53;;;;;;;121.40;54.17;;;16.60;99.90;;;;;;5094020;28;20032;-78
2021/06/05 02:25:22;;;;;;;134.38;54.13;;;16.60;99.90;;;;;;5094038;28;20024;-78
2021/06/05 02:27:51;;;;;;;132.43;53.50;;;16.60;99.90;;;;;;5093888;28;20024;-73
2021/06/05 02:30:21;;;;;;;138.65;56.55;;;16.60;99.90;;;;;;5093838;28;20055;-78
2021/06/05 02:32:48;;;;;;;144.50;56.80;;;16.60;99.90;;;;;;5093880;28;20081;-79
2021/06/05 02:35:23;;;;;;;133.98;55.90;;;16.70;99.90;;;;;;5093848;28;20535;-78
2021/06/05 02:37:49;;;;;;;138.95;56.72;;;16.60;99.90;;;;;;5075584;28;20017;-78
2021/06/05 02:40:22;;;;;;;128.73;54.97;;;16.60;99.90;;;;;;5073708;28;20036;-78
2021/06/05 02:42:48;;;;;;;130.40;53.47;;;16.60;99.90;;;;;;5093132;28;20060;-78
2021/06/05 02:45:28;;;;;;;136.32;54.97;;;16.60;99.90;;;;;;5094028;28;20059;-78
2021/06/05 02:47:59;;;;;;;127.65;53.88;;;16.60;99.90;;;;;;5094142;28;20023;-78
2021/06/05 02:50:38;;;;;;;130.90;54.15;;;16.60;99.90;;;;;;5093703;28;20035;-79
2021/06/05 02:53:04;;;;;;;132.63;54.88;;;16.60;99.90;;;;;;5093471;28;20020;-78
2021/06/05 02:55:33;;;;;;;124.30;54.30;;;16.60;99.90;;;;;;5092546;28;20353;-78
2021/06/05 02:57:58;;;;;;;133.07;54.47;;;16.60;99.90;;;;;;5093448;28;20108;-79
2021/06/05 03:00:38;;;;;;;134.98;57.15;;;16.60;99.90;;;;;;5093567;28;20024;-78
2021/06/05 03:03:09;;;;;;;141.25;55.45;;;16.60;99.90;;;;;;5093518;28;20043;-78
2021/06/05 03:05:36;;;;;;;137.93;53.83;;;16.60;99.90;;;;;;5093625;28;20107;-79
2021/06/05 03:08:03;;;;;;;132.55;56.25;;;16.70;99.90;;;;;;5093297;28;20395;-78
2021/06/05 03:10:32;;;;;;;143.68;54.70;;;16.70;99.90;;;;;;5092566;28;20048;-78
2021/06/05 03:13:00;;;;;;;123.70;53.00;;;16.70;99.90;;;;;;5092302;28;20020;-79
2021/06/05 03:15:27;;;;;;;112.25;51.10;;;16.80;99.90;;;;;;5093189;28;20016;-78
2021/06/05 03:17:56;;;;;;;103.32;47.53;;;16.80;99.90;;;;;;5092119;28;20024;-79
2021/06/05 03:20:27;;;;;;;98.40;47.78;;;16.80;99.90;;;;;;5093204;28;20059;-79
2021/06/05 03:22:54;;;;;;;95.93;47.10;;;16.80;99.90;;;;;;5093298;28;20122;-78
2021/06/05 03:25:20;;;;;;;94.50;45.00;;;16.80;99.90;;;;;;5092999;28;20081;-78
2021/06/05 03:27:46;;;;;;;82.63;43.72;;;16.80;99.90;;;;;;5092924;28;20028;-79
2021/06/05 03:30:15;;;;;;;90.03;43.80;;;16.80;99.90;;;;;;5092630;28;20112;-79
2021/06/05 03:32:41;;;;;;;76.38;42.00;;;16.70;99.90;;;;;;5091586;28;20016;-78
2021/06/05 03:35:08;;;;;;;84.75;42.63;;;16.70;99.90;;;;;;5091670;28;20032;-79
2021/06/05 03:37:33;;;;;;;75.18;41.90;;;16.70;99.90;;;;;;5091830;28;20060;-72
2021/06/05 03:40:00;;;;;;;78.78;40.33;;;16.70;99.90;;;;;;5083901;28;20503;-68
2021/06/05 03:42:26;;;;;;;70.85;38.47;;;16.70;99.90;;;;;;5093010;28;20100;-69
2021/06/05 03:44:55;;;;;;;76.45;41.80;;;16.70;99.90;;;;;;5091998;28;20119;-69
2021/06/05 03:47:24;;;;;;;79.13;42.00;;;16.70;99.90;;;;;;5091821;28;20497;-69
2021/06/05 03:49:52;;;;;;;79.93;43.13;;;16.70;99.90;;;;;;5092624;28;20035;-68
2021/06/05 03:52:22;;;;;;;74.30;39.97;;;16.70;99.90;;;;;;5092759;28;20027;-69
2021/06/05 03:54:52;;;;;;;69.18;38.70;;;16.70;99.90;;;;;;5093051;28;20505;-68
2021/06/05 03:57:19;;;;;;;75.65;39.70;;;16.80;99.90;;;;;;5092899;28;20027;-69
2021/06/05 03:59:45;;;;;;;78.53;40.67;;;16.80;99.90;;;;;;5092516;28;20098;-69
2021/06/05 04:02:11;;;;;;;71.90;39.97;;;16.80;99.90;;;;;;5092091;28;20023;-69
2021/06/05 04:04:36;;;;;;;76.93;41.83;;;16.70;99.90;;;;;;5092533;28;20051;-69
2021/06/05 04:07:08;;;;;;;72.55;40.05;;;16.70;99.90;;;;;;5092595;28;20063;-70
2021/06/05 04:09:37;;;;;;;81.30;41.25;;;16.80;99.90;;;;;;5092422;28;20112;-69
2021/06/05 04:12:03;;;;;;;80.57;40.30;;;16.80;99.90;;;;;;5092332;28;20031;-69
2021/06/05 04:14:30;;;;;;;78.40;41.85;;;16.80;99.90;;;;;;5092281;28;20035;-70
2021/06/05 04:16:55;;;;;;;72.78;38.72;;;16.80;99.90;;;;;;5091735;28;20107;-70
2021/06/05 04:19:23;;;;;;;78.28;40.40;;;16.80;99.90;;;;;;5091204;28;20051;-70
2021/06/05 04:21:49;;;;;;;69.75;38.03;;;16.80;99.90;;;;;;5092095;28;20028;-70
2021/06/05 04:24:15;;;;;;;72.70;38.85;;;16.90;99.90;;;;;;5092148;28;20599;-71
2021/06/05 04:26:41;;;;;;;74.82;37.35;;;16.90;99.90;;;;;;5092168;28;20077;-69
2021/06/05 04:29:07;;;;;;;74.68;37.70;;;16.90;99.90;;;;;;5091995;28;20135;-70
2021/06/05 04:31:32;;;;;;;69.20;36.70;;;16.90;99.90;;;;;;5092104;28;20035;-70
2021/06/05 04:33:58;;;;;;;59.35;31.73;;;17.00;99.90;;;;;;5092120;28;20024;-70
2021/06/05 04:36:24;;;;;;;60.03;32.90;;;16.90;99.90;;;;;;5092047;28;20307;-70
2021/06/05 04:38:53;;;;;;;60.97;32.38;;;16.90;99.90;;;;;;5076931;28;20030;-70
2021/06/05 04:41:20;;;;;;;60.28;35.47;;;16.90;99.90;;;;;;5071876;28;20024;-70
2021/06/05 04:43:46;;;;;;;67.13;34.45;;;16.90;99.90;;;;;;5071616;28;20024;-70
2021/06/05 04:46:13;;;;;;;56.00;31.25;;;16.90;99.90;;;;;;5070776;28;20111;-70
2021/06/05 04:48:40;;;;;;;57.17;33.30;;;16.90;99.90;;;;;;5071637;28;20021;-70
2021/06/05 04:51:06;;;;;;;53.30;31.05;;;16.90;99.90;;;;;;5071684;28;20032;-70
2021/06/05 04:53:34;;;;;;;62.58;33.22;;;16.90;99.90;;;;;;5071679;28;20042;-70
2021/06/05 04:56:01;;;;;;;56.03;32.90;;;17.00;99.90;;;;;;5071692;28;20080;-70
2021/06/05 04:58:27;;;;;;;54.20;29.75;;;17.00;99.90;;;;;;5070741;28;20029;-69
2021/06/05 05:00:56;;;;;;;50.28;29.25;;;17.00;99.90;;;;;;5071725;28;20025;-70
2021/06/05 05:03:27;;;;;;;46.97;28.45;;;17.00;99.90;;;;;;5071543;28;20028;-70
2021/06/05 05:05:59;;;;;;;50.97;29.02;;;17.00;99.90;;;;;;5071672;28;20036;-70
2021/06/05 05:08:28;;;;;;;48.05;28.40;;;17.00;99.90;;;;;;5083021;28;20030;-70
2021/06/05 05:10:58;;;;;;;45.90;28.70;;;17.00;99.90;;;;;;5091486;28;20024;-70
2021/06/05 05:13:32;;;;;;;44.95;27.77;;;17.00;99.90;;;;;;5091635;28;20091;-70
2021/06/05 05:15:59;;;;;;;49.75;28.23;;;17.00;99.90;;;;;;5091631;28;20346;-70
2021/06/05 05:18:27;;;;;;;48.13;29.00;;;17.10;99.90;;;;;;5091500;28;20538;-70
2021/06/05 05:20:54;;;;;;;50.28;30.00;;;17.10;99.90;;;;;;5091555;28;20021;-70
2021/06/05 05:23:21;;;;;;;49.22;27.63;;;17.20;99.90;;;;;;5091341;28;20162;-70
2021/06/05 05:25:47;;;;;;;45.50;28.05;;;17.20;99.90;;;;;;5091586;28;20335;-70
2021/06/05 05:28:16;;;;;;;42.42;26.67;;;17.30;99.90;;;;;;5092094;28;20039;-70
2021/06/05 05:30:46;;;;;;;41.97;26.80;;;17.30;99.90;;;;;;5095268;28;20042;-70
2021/06/05 05:33:13;;;;;;;41.80;25.02;;;17.30;99.90;;;;;;5095671;28;20297;-70
2021/06/05 05:35:38;;;;;;;41.90;25.05;;;17.30;99.90;;;;;;5095259;28;20403;-70
2021/06/05 05:38:06;;;;;;;42.40;26.48;;;17.30;99.90;;;;;;5095017;28;20028;-70
2021/06/05 05:40:33;;;;;;;44.58;25.88;;;17.40;99.90;;;;;;5094112;28;20399;-70
2021/06/05 05:42:58;;;;;;;45.40;25.63;;;17.40;99.90;;;;;;5095022;28;20089;-70
2021/06/05 05:45:26;;;;;;;45.63;25.08;;;17.40;99.90;;;;;;5094939;28;20036;-70
2021/06/05 05:47:56;;;;;;;45.47;26.95;;;17.40;99.90;;;;;;5094877;28;20385;-70
2021/06/05 05:50:25;;;;;;;48.20;26.10;;;17.50;99.90;;;;;;5094829;28;20035;-70
2021/06/05 05:52:50;;;;;;;49.30;26.70;;;17.60;99.90;;;;;;5094669;28;20090;-70
2021/06/05 05:55:18;;;;;;;48.30;25.30;;;17.70;99.90;;;;;;5094845;28;20016;-70
2021/06/05 05:57:46;;;;;;;42.05;26.58;;;17.80;99.90;;;;;;5094969;28;20020;-70
2021/06/05 06:00:16;;;;;;;42.70;25.65;;;17.70;99.90;;;;;;5094876;28;20016;-71
2021/06/05 06:02:41;;;;;;;51.47;27.92;;;17.80;99.90;;;;;;5093728;28;20036;-70
2021/06/05 06:05:10;;;;;;;52.20;28.08;;;17.80;99.90;;;;;;5094785;28;20039;-71
2021/06/05 06:07:36;;;;;;;52.35;28.25;;;17.80;99.90;;;;;;5094662;28;20070;-72
2021/06/05 06:10:03;;;;;;;43.58;25.90;;;17.70;99.90;;;;;;5094688;28;20063;-72
2021/06/05 06:12:29;;;;;;;53.35;27.63;;;17.70;99.90;;;;;;5094657;28;20597;-71
2021/06/05 06:14:55;;;;;;;51.28;28.88;;;17.70;99.90;;;;;;5094594;28;20074;-71
2021/06/05 06:17:20;;;;;;;48.42;26.92;;;17.70;99.90;;;;;;5094546;28;20069;-72
2021/06/05 06:19:47;;;;;;;46.58;25.42;;;17.70;99.90;;;;;;5093404;28;20027;-72
2021/06/05 06:22:12;;;;;;;44.15;27.10;;;17.70;99.90;;;;;;5094550;28;20028;-71
2021/06/05 06:24:38;;;;;;;47.05;27.38;;;17.70;99.90;;;;;;5094579;28;20515;-72
2021/06/05 06:27:04;;;;;;;43.17;26.30;;;17.80;99.90;;;;;;5094507;28;20036;-71
2021/06/05 06:29:34;;;;;;;45.72;26.80;;;17.90;99.90;;;;;;5094310;28;20048;-71
2021/06/05 06:32:00;;;;;;;41.20;25.30;;;17.90;99.90;;;;;;5094149;28;20121;-72
2021/06/05 06:34:26;;;;;;;43.08;25.83;;;17.90;99.90;;;;;;5094289;28;20024;-72
2021/06/05 06:36:58;;;;;;;40.03;25.75;;;18.00;99.90;;;;;;5094377;28;20097;-72
2021/06/05 06:39:26;;;;;;;41.17;24.45;;;18.00;99.90;;;;;;5092658;28;20020;-72
2021/06/05 06:41:52;;;;;;;38.15;23.38;;;18.10;99.90;;;;;;5094051;28;20024;-71
2021/06/05 06:44:18;;;;;;;41.92;21.95;;;18.10;99.90;;;;;;5094027;28;20028;-71
2021/06/05 06:46:48;;;;;;;31.60;21.48;;;18.10;99.90;;;;;;5093997;28;20020;-72
2021/06/05 06:49:16;;;;;;;36.42;20.80;;;18.10;99.90;;;;;;5093851;28;20024;-72
2021/06/05 06:51:42;;;;;;;30.63;19.23;;;18.00;99.90;;;;;;5093783;28;20097;-72
2021/06/05 06:54:09;;;;;;;29.90;19.55;;;18.10;99.90;;;;;;5092578;28;20020;-72
2021/06/05 06:56:35;;;;;;;26.33;18.05;;;18.00;99.90;;;;;;5093814;28;20096;-72
2021/06/05 06:59:04;;;;;;;21.48;15.65;;;18.20;99.90;;;;;;5093679;28;20027;-72
2021/06/05 07:01:30;;;;;;;25.98;17.38;;;18.40;99.90;;;;;;5093768;28;20055;-71
2021/06/05 07:03:56;;;;;;;24.30;16.08;;;18.60;99.90;;;;;;5092419;28;20056;-72
2021/06/05 07:06:27;;;;;;;23.02;15.90;;;18.90;99.90;;;;;;5093066;28;20078;-72
2021/06/05 07:08:55;;;;;;;19.67;14.35;;;19.40;99.90;;;;;;5093450;28;20028;-72
2021/06/05 07:11:27;;;;;;;25.40;16.05;;;19.60;99.90;;;;;;5093441;28;20028;-72
2021/06/05 07:13:53;;;;;;;24.38;17.83;;;19.90;99.90;;;;;;5093438;28;20031;-72
2021/06/05 07:16:19;;;;;;;27.60;16.80;;;20.30;99.90;;;;;;5093396;28;20020;-72
2021/06/05 07:18:48;;;;;;;25.38;17.08;;;20.90;99.90;;;;;;5093239;28;20012;-72
2021/06/05 07:21:16;;;;;;;23.48;16.58;;;21.30;99.90;;;;;;5093270;28;20032;-72
2021/06/05 07:23:42;;;;;;;25.00;16.67;;;21.80;99.90;;;;;;5093277;28;20107;-72
2021/06/05 07:26:15;;;;;;;29.77;18.52;;;22.10;99.90;;;;;;5093239;28;20444;-72
2021/06/05 07:28:47;;;;;;;26.30;17.60;;;21.70;99.90;;;;;;5092860;28;20079;-72
2021/06/05 07:31:16;;;;;;;26.42;17.70;;;21.50;99.90;;;;;;5092963;28;20028;-72
2021/06/05 07:33:44;;;;;;;23.05;16.08;;;21.30;99.90;;;;;;5091915;28;20020;-72
2021/06/05 07:36:15;;;;;;;28.10;18.15;;;21.20;99.90;;;;;;5093106;28;20016;-72
2021/06/05 07:38:43;;;;;;;;;;;21.00;99.90;;;;;;5092606;28;20028;-72
2021/06/05 07:41:09;;;;;;;28.42;17.58;;;20.90;99.90;;;;;;5092885;28;19930;-72
2021/06/05 07:43:34;;;;;;;29.40;18.15;;;20.80;99.90;;;;;;5091778;28;20024;-71
2021/06/05 07:46:01;;;;;;;30.42;20.25;;;20.70;99.90;;;;;;5092912;28;20346;-71
2021/06/05 07:48:28;;;;;;;34.40;21.90;;;20.70;99.90;;;;;;5092764;28;20110;-70
2021/06/05 07:50:57;;;;;;;33.33;20.20;;;20.70;99.90;;;;;;5091833;28;20031;-70
2021/06/05 07:53:22;;;;;;;36.55;22.58;;;20.70;99.90;;;;;;5092712;28;20047;-70
2021/06/05 07:55:48;;;;;;;26.42;18.63;;;20.80;99.90;;;;;;5092768;28;20064;-70
2021/06/05 07:58:17;;;;;;;35.30;20.70;;;20.90;99.90;;;;;;5092515;28;20020;-70
2021/06/05 08:00:42;;;;;;;33.33;21.13;;;21.10;99.90;;;;;;5092621;28;20111;-71
2021/06/05 08:03:08;;;;;;;34.03;21.20;;;21.30;99.90;;;;;;5092495;28;20107;-70
2021/06/05 08:05:37;;;;;;;35.10;21.15;;;21.30;99.90;;;;;;5092516;28;20028;-70
2021/06/05 08:08:03;;;;;;;33.55;22.25;;;21.20;99.90;;;;;;5092236;28;20024;-70
2021/06/05 08:10:29;;;;;;;31.10;20.52;;;21.30;99.90;;;;;;5091437;28;20060;-70
2021/06/05 08:12:56;;;;;;;34.95;23.00;;;21.30;99.90;;;;;;5092432;28;20070;-71
2021/06/05 08:15:42;;;;;;;30.20;20.73;;;21.00;99.90;;;;;;5092577;28;20081;-71
2021/06/05 08:18:10;;;;;;;30.00;19.55;;;21.20;99.90;;;;;;5092266;28;20016;-71
2021/06/05 08:20:57;;;;;;;31.35;20.45;;;21.20;99.90;;;;;;5092313;28;20028;-71
2021/06/05 08:23:25;;;;;;;26.92;18.88;;;21.30;99.90;;;;;;5092164;28;20503;-71
2021/06/05 08:25:51;;;;;;;28.33;19.48;;;21.50;99.90;;;;;;5092222;28;20028;-72
2021/06/05 08:28:22;;;;;;;31.42;18.75;;;21.40;99.90;;;;;;5091911;28;20043;-71
2021/06/05 08:30:52;;;;;;;33.65;20.33;;;21.40;99.90;;;;;;5092001;28;20028;-70
2021/06/05 08:33:18;;;;;;;27.35;18.38;;;21.40;99.90;;;;;;5091843;28;20088;-71
2021/06/05 08:35:44;;;;;;;32.13;20.65;;;21.40;99.90;;;;;;5092150;28;20020;-71
2021/06/05 08:38:12;;;;;;;26.20;17.33;;;21.40;99.90;;;;;;5092028;28;20031;-71
2021/06/05 08:40:56;;;;;;;29.60;19.90;;;21.60;99.90;;;;;;5092258;28;20063;-71
2021/06/05 08:43:32;;;;;;;28.75;19.00;;;21.70;99.90;;;;;;5091904;28;20073;-70
2021/06/05 08:45:59;;;;;;;27.85;18.20;;;21.90;99.90;;;;;;5091955;28;20031;-71
2021/06/05 08:48:30;;;;;;;29.98;18.92;;;21.90;99.90;;;;;;5091783;28;20146;-71
2021/06/05 08:51:21;;;;;;;26.02;18.77;;;22.10;99.90;;;;;;5091645;28;20086;-71
2021/06/05 08:53:47;;;;;;;24.77;18.17;;;22.10;99.90;;;;;;5090875;28;20064;-70
2021/06/05 08:56:20;;;;;;;23.77;17.77;;;22.30;99.90;;;;;;5091908;28;20342;-72
2021/06/05 08:58:54;;;;;;;25.13;17.88;;;22.70;99.90;;;;;;5091846;28;20016;-71
2021/06/05 09:01:45;;;;;;;23.88;17.08;;;22.60;99.90;;;;;;5091845;28;20024;-71
2021/06/05 09:04:17;;;;;;;26.10;17.10;;;22.50;99.90;;;;;;5094757;28;20392;-71
2021/06/05 09:06:54;;;;;;;26.95;18.80;;;22.60;99.90;;;;;;5095800;28;20066;-71
2021/06/05 09:09:28;;;;;;;25.58;17.73;;;22.80;99.90;;;;;;5095615;28;20025;-71
2021/06/05 09:11:53;;;;;;;23.73;17.85;;;22.70;99.90;;;;;;5095824;28;20420;-70
2021/06/05 09:14:19;;;;;;;28.45;18.90;;;22.50;99.90;;;;;;5094567;28;20027;-70
2021/06/05 09:16:48;;;;;;;27.17;20.25;;;22.20;99.90;;;;;;5095660;28;20035;-69
2021/06/05 09:19:16;;;;;;;29.23;19.60;;;21.90;99.90;;;;;;5095386;28;20323;-70
2021/06/05 09:22:05;;;;;;;29.08;20.20;;;21.70;99.90;;;;;;5095487;28;20361;-71
2021/06/05 09:24:42;;;;;;;29.90;21.60;;;21.50;99.90;;;;;;5092852;28;20369;-71
2021/06/05 09:27:17;;;;;;;33.10;19.98;;;21.30;99.90;;;;;;5095249;28;20035;-70
2021/06/05 09:29:57;;;;;;;29.60;21.23;;;21.10;99.90;;;;;;5095217;28;20388;-70
2021/06/05 09:32:30;;;;;;;30.73;19.73;;;21.20;99.90;;;;;;5095485;28;20402;-71
2021/06/05 09:35:00;;;;;;;37.30;21.90;;;21.40;99.90;;;;;;5094033;28;20020;-70
2021/06/05 09:37:41;;;;;;;30.13;19.83;;;21.50;99.90;;;;;;5095131;28;20341;-71
2021/06/05 09:40:18;;;;;;;34.05;20.42;;;21.70;99.90;;;;;;5095091;28;20038;-70
2021/06/05 09:42:48;;;;;;;33.90;21.80;;;21.80;99.90;;;;;;5095196;28;20028;-71
2021/06/05 09:45:29;;;;;;;33.30;22.42;;;21.90;99.90;;;;;;5095375;28;20482;-71
2021/06/05 09:48:30;;;;;;;32.72;21.25;;;21.90;99.90;;;;;;5093696;28;20484;-71
2021/06/05 09:51:03;;;;;;;32.33;22.83;;;21.70;99.90;;;;;;5090842;28;20140;-71
2021/06/05 09:53:35;;;;;;;38.67;24.80;;;21.70;99.90;;;;;;5095399;28;20055;-71
2021/06/05 09:56:12;;;;;;;35.22;25.15;;;21.70;99.90;;;;;;5094119;28;20035;-70
2021/06/05 09:58:41;;;;;;;40.30;24.00;;;21.70;99.90;;;;;;5094941;28;20027;-70
2021/06/05 10:01:25;;;;;;;40.13;26.85;;;21.80;99.90;;;;;;5094877;28;20039;-70
2021/06/05 10:03:56;;;;;;;36.28;23.67;;;21.90;99.90;;;;;;5094994;28;20082;-70
2021/06/05 10:06:36;;;;;;;;;;;21.80;99.90;;;;;;5095447;28;20016;-71
2021/06/05 10:09:24;;;;;;;35.10;22.55;;;21.80;99.90;;;;;;5094771;28;20229;-70
2021/06/05 10:11:53;;;;;;;36.05;22.60;;;21.80;99.90;;;;;;5093123;28;20111;-71
2021/06/05 10:14:30;;;;;;;35.50;23.65;;;21.80;99.90;;;;;;5093755;28;20058;-70
2021/06/05 10:17:22;;;;;;;36.15;22.25;;;21.90;99.90;;;;;;5094493;28;20089;-71
2021/06/05 10:19:57;;;;;;;33.03;23.42;;;22.00;99.90;;;;;;5094682;28;20120;-70
2021/06/05 10:22:24;;;;;;;38.78;23.67;;;21.90;99.90;;;;;;5094528;28;20182;-70
2021/06/05 10:25:22;;;;;;;35.45;22.83;;;21.90;99.90;;;;;;5094362;28;20032;-70
2021/06/05 10:27:48;;;;;;;36.88;23.63;;;21.80;99.90;;;;;;5092747;28;20028;-68
2021/06/05 10:30:35;;;;;;;33.80;22.67;;;21.60;99.90;;;;;;5094236;28;20028;-70
2021/06/05 10:33:03;;;;;;;36.83;25.00;;;21.40;99.90;;;;;;5093962;28;20028;-71
2021/06/05 10:35:39;;;;;;;42.42;26.35;;;21.30;99.90;;;;;;5094221;28;20445;-70
2021/06/05 10:38:12;;;;;;;41.00;26.33;;;21.00;99.90;;;;;;5094250;28;20028;-71
2021/06/05 10:40:38;;;;;;;37.60;24.27;;;20.80;99.90;;;;;;5094139;28;20051;-69
2021/06/05 10:43:07;;;;;;;37.72;25.02;;;20.70;99.90;;;;;;5093918;28;20530;-71
2021/06/05 10:45:38;;;;;;;44.42;25.67;;;20.60;99.90;;;;;;5094066;28;20019;-71
2021/06/05 10:48:23;;;;;;;44.22;27.58;;;20.50;99.90;;;;;;5093837;28;20078;-70
2021/06/05 10:51:00;;;;;;;47.63;29.77;;;20.60;99.90;;;;;;5093822;28;20028;-70
2021/06/05 10:53:33;;;;;;;55.10;28.63;;;20.30;99.90;;;;;;5094060;28;20020;-70
2021/06/05 10:56:30;;;;;;;56.05;29.92;;;20.20;99.90;;;;;;5093820;28;20115;-69
2021/06/05 10:58:56;;;;;;;54.67;30.30;;;20.30;99.90;;;;;;5093600;28;20103;-70
2021/06/05 11:01:40;;;;;;;50.25;30.15;;;20.50;99.90;;;;;;5092566;28;20054;-69
2021/06/05 11:04:29;;;;;;;45.08;27.13;;;21.00;99.90;;;;;;5093606;28;20028;-70
2021/06/05 11:07:04;;;;;;;42.70;25.92;;;21.90;99.90;;;;;;5093632;28;20028;-70
2021/06/05 11:09:30;;;;;;;39.05;23.95;;;22.80;99.90;;;;;;5089122;28;20032;-69
2021/06/05 11:12:12;;;;;;;39.00;24.75;;;23.40;99.90;;;;;;5073215;28;20028;-69
2021/06/05 11:14:40;;;;;;;38.92;24.33;;;24.00;99.90;;;;;;5073277;28;20025;-70
2021/06/05 11:17:30;;;;;;;41.22;24.20;;;24.60;99.90;;;;;;5073191;28;20544;-71
2021/06/05 11:20:08;;;;;;;35.63;22.95;;;24.90;99.90;;;;;;5073289;28;20031;-70
2021/06/05 11:22:59;;;;;;;33.88;22.25;;;25.40;99.90;;;;;;5073004;28;20440;-71
2021/06/05 11:25:41;;;;;;;33.42;22.38;;;25.50;99.90;;;;;;5069690;28;20136;-71
2021/06/05 11:28:32;;;;;;;27.92;21.02;;;25.90;99.90;;;;;;5072787;28;20028;-70
2021/06/05 11:30:58;;;;;;;31.65;21.85;;;26.60;99.90;;;;;;5072814;28;20060;-70
2021/06/05 11:33:39;;;;;;;29.63;22.00;;;26.50;99.90;;;;;;5072778;28;20104;-69
2021/06/05 11:36:38;;;;;;;32.13;22.23;;;26.40;99.90;;;;;;5071727;28;20035;-71
2021/06/05 11:39:30;;;;;;;34.22;22.35;;;25.80;99.90;;;;;;5087328;28;20028;-71
2021/06/05 11:42:20;;;;;;;33.30;22.05;;;25.60;99.90;;;;;;5081955;28;20036;-69
2021/06/05 11:45:07;;;;;;;33.90;24.02;;;25.60;99.90;;;;;;5092794;28;20055;-70
2021/06/05 11:47:37;;;;;;;33.17;22.55;;;25.30;99.90;;;;;;5085176;28;20325;-70
2021/06/05 11:50:12;;;;;;;34.97;22.35;;;25.50;99.90;;;;;;5088363;28;20726;-69
2021/06/05 11:52:49;;;;;;;33.53;22.45;;;25.90;99.90;;;;;;5072721;28;20040;-70
2021/06/05 11:55:35;;;;;;;35.25;24.40;;;26.10;99.90;;;;;;5072524;28;20379;-70
2021/06/05 11:58:06;;;;;;;37.38;26.75;;;26.10;99.90;;;;;;5068198;28;20033;-71
2021/06/05 12:00:31;;;;;;;39.50;25.25;;;25.30;99.90;;;;;;5072533;28;20025;-71
2021/06/05 12:03:10;;;;;;;40.15;27.90;;;25.30;99.90;;;;;;5072319;28;20028;-70
2021/06/05 12:05:42;;;;;;;39.67;26.48;;;24.90;99.90;;;;;;5072367;28;20468;-70
2021/06/05 12:08:31;;;;;;;41.75;26.77;;;24.60;99.90;;;;;;5072195;28;20032;-70
2021/06/05 12:10:57;;;;;;;45.47;30.80;;;24.30;99.90;;;;;;5072229;28;20461;-70
2021/06/05 12:13:33;;;;;;;40.85;27.83;;;24.30;99.90;;;;;;5072349;28;20043;-69
2021/06/05 12:16:26;;;;;;;47.42;31.58;;;24.10;99.90;;;;;;5072232;28;20353;-70
2021/06/05 12:18:54;;;;;;;46.67;30.55;;;23.90;99.90;;;;;;5071171;28;20024;-69
2021/06/05 12:21:37;;;;;;;48.10;31.67;;;23.40;99.90;;;;;;5072129;28;20142;-69
2021/06/05 12:24:25;;;;;;;46.30;32.70;;;23.30;99.90;;;;;;5071928;28;20052;-69
2021/06/05 12:27:05;;;;;;;50.33;31.38;;;23.20;99.90;;;;;;5071920;28;20085;-70
2021/06/05 12:29:38;;;;;;;48.30;33.88;;;23.10;99.90;;;;;;5071844;28;20186;-70
2021/06/05 12:32:15;;;;;;;49.88;32.05;;;23.20;99.90;;;;;;5071806;28;20032;-70
2021/06/05 12:34:42;;;;;;;53.47;33.67;;;23.50;99.90;;;;;;5072009;28;20086;-70
2021/06/05 12:37:21;;;;;;;51.85;34.03;;;23.80;99.90;;;;;;5071378;28;20023;-70
2021/06/05 12:39:53;;;;;;;53.28;33.85;;;24.00;99.90;;;;;;5083926;28;20028;-69
2021/06/05 12:42:27;;;;;;;60.28;35.92;;;24.00;99.90;;;;;;5092021;28;20030;-71
2021/06/05 12:44:57;;;;;;;50.33;34.13;;;23.80;99.90;;;;;;5092000;28;20043;-70
2021/06/05 12:47:30;;;;;;;52.35;36.20;;;23.90;99.90;;;;;;5091892;28;20068;-70